sensor_id;sensor_type;location;lat;lon;timestamp;temperature;humidity
9151;DHT22;4610;50.006;7.490;2022-12-10T00:01:04;0.30;99.90
9151;DHT22;4610;50.006;7.490;2022-12-10T00:03:31;0.30;99.90
9151;DHT22;4610;50.006;7.490;2022-12-10T00:06:00;0.40;99.90
9151;DHT22;4610;50.006;7.490;2022-12-10T00:08:29;0.50;99.90
9151;DHT22;4610;50.006;7.490;2022-12-10T00:10:56;0.30;99.90
9151;DHT22;4610;50.006;7.490;2022-12-10T00:13:23;0.30;99.90
9151;DHT22;4610;50.006;7.490;2022-12-10T00:15:50;0.40;99.90
9151;DHT22;4610;50.006;7.490;2022-12-10T00:18:17;0.40;99.90
9151;DHT22;4610;50.006;7.490;2022-12-10T00:20:44;0.40;99.90
9151;DHT22;4610;50.006;7.490;2022-12-10T00:23:11;0.50;99.90
9151;DHT22;4610;50.006;7.490;2022-12-10T00:25:39;0.50;99.90
9151;DHT22;4610;50.006;7.490;2022-12-10T00:28:06;0.50;99.90
9151;DHT22;4610;50.006;7.490;2022-12-10T00:30:33;0.50;99.90
9151;DHT22;4610;50.006;7.490;2022-12-10T00:33:00;0.40;99.90
9151;DHT22;4610;50.006;7.490;2022-12-10T00:35:27;0.40;99.90
9151;DHT22;4610;50.006;7.490;2022-12-10T00:37:55;0.40;99.90
9151;DHT22;4610;50.006;7.490;2022-12-10T00:40:23;0.30;99.90
9151;DHT22;4610;50.006;7.490;2022-12-10T00:42:51;0.30;99.90
9151;DHT22;4610;50.006;7.490;2022-12-10T00:45:18;0.30;99.90
9151;DHT22;4610;50.006;7.490;2022-12-10T00:47:44;0.20;99.90
9151;DHT22;4610;50.006;7.490;2022-12-10T00:50:11;0.30;99.90
9151;DHT22;4610;50.006;7.490;2022-12-10T00:52:38;0.30;99.90
9151;DHT22;4610;50.006;7.490;2022-12-10T00:55:05;0.40;99.90
9151;DHT22;4610;50.006;7.490;2022-12-10T00:57:32;0.40;99.90
9151;DHT22;4610;50.006;7.490;2022-12-10T01:00:00;0.50;99.90
9151;DHT22;4610;50.006;7.490;2022-12-10T01:02:27;0.60;99.90
9151;DHT22;4610;50.006;7.490;2022-12-10T01:04:54;0.50;99.90
9151;DHT22;4610;50.006;7.490;2022-12-10T01:07:21;0.60;99.90
9151;DHT22;4610;50.006;7.490;2022-12-10T01:09:48;0.60;99.90
9151;DHT22;4610;50.006;7.490;2022-12-10T01:12:15;0.60;99.90
9151;DHT22;4610;50.006;7.490;2022-12-10T01:14:41;0.50;99.90
9151;DHT22;4610;50.006;7.490;2022-12-10T01:17:09;0.40;99.90
9151;DHT22;4610;50.006;7.490;2022-12-10T01:19:36;0.40;99.90
9151;DHT22;4610;50.006;7.490;2022-12-10T01:22:04;0.30;99.90
9151;DHT22;4610;50.006;7.490;2022-12-10T01:24:33;0.30;99.90
9151;DHT22;4610;50.006;7.490;2022-12-10T01:27:00;0.20;99.90
9151;DHT22;4610;50.006;7.490;2022-12-10T01:29:27;0.30;99.90
9151;DHT22;4610;50.006;7.490;2022-12-10T01:31:56;0.20;99.90
9151;DHT22;4610;50.006;7.490;2022-12-10T01:34:26;0.20;99.90
9151;DHT22;4610;50.006;7.490;2022-12-10T01:36:53;0.30;99.90
9151;DHT22;4610;50.006;7.490;2022-12-10T01:39:22;0.40;99.90
9151;DHT22;4610;50.006;7.490;2022-12-10T01:41:51;0.40;99.90
9151;DHT22;4610;50.006;7.490;2022-12-10T01:47:22;0.50;99.90
9151;DHT22;4610;50.006;7.490;2022-12-10T01:49:51;0.50;99.90
9151;DHT22;4610;50.006;7.490;2022-12-10T01:52:18;0.50;99.90
9151;DHT22;4610;50.006;7.490;2022-12-10T01:54:46;0.50;99.90
9151;DHT22;4610;50.006;7.490;2022-12-10T01:57:15;0.60;99.90
9151;DHT22;4610;50.006;7.490;2022-12-10T01:59:44;0.60;99.90
9151;DHT22;4610;50.006;7.490;2022-12-10T02:02:16;0.50;99.90
9151;DHT22;4610;50.006;7.490;2022-12-10T02:04:53;0.50;99.90
9151;DHT22;4610;50.006;7.490;2022-12-10T02:07:26;0.60;99.90
9151;DHT22;4610;50.006;7.490;2022-12-10T02:09:58;0.60;99.90
9151;DHT22;4610;50.006;7.490;2022-12-10T02:12:33;0.50;99.90
9151;DHT22;4610;50.006;7.490;2022-12-10T02:15:06;0.50;99.90
9151;DHT22;4610;50.006;7.490;2022-12-10T02:17:39;0.40;99.90
9151;DHT22;4610;50.006;7.490;2022-12-10T02:20:10;0.30;99.90
9151;DHT22;4610;50.006;7.490;2022-12-10T02:22:44;0.10;99.90
9151;DHT22;4610;50.006;7.490;2022-12-10T02:25:13;0.10;99.90
9151;DHT22;4610;50.006;7.490;2022-12-10T02:27:49;0.00;99.90
9151;DHT22;4610;50.006;7.490;2022-12-10T02:30:21;0.00;99.90
9151;DHT22;4610;50.006;7.490;2022-12-10T02:32:50;0.10;99.90
9151;DHT22;4610;50.006;7.490;2022-12-10T02:35:21;0.10;99.90
9151;DHT22;4610;50.006;7.490;2022-12-10T02:37:51;0.10;99.90
9151;DHT22;4610;50.006;7.490;2022-12-10T02:40:23;0.10;99.90
9151;DHT22;4610;50.006;7.490;2022-12-10T02:42:52;0.00;99.90
9151;DHT22;4610;50.006;7.490;2022-12-10T02:45:23;0.10;99.90
9151;DHT22;4610;50.006;7.490;2022-12-10T02:47:55;0.10;99.90
9151;DHT22;4610;50.006;7.490;2022-12-10T02:50:23;0.10;99.90
9151;DHT22;4610;50.006;7.490;2022-12-10T02:52:50;0.10;99.90
9151;DHT22;4610;50.006;7.490;2022-12-10T02:55:21;0.10;99.90
9151;DHT22;4610;50.006;7.490;2022-12-10T02:58:01;0.10;99.90
9151;DHT22;4610;50.006;7.490;2022-12-10T03:00:32;0.00;99.90
9151;DHT22;4610;50.006;7.490;2022-12-10T03:03:21;0.00;99.90
9151;DHT22;4610;50.006;7.490;2022-12-10T03:05:56;0.00;99.90
9151;DHT22;4610;50.006;7.490;2022-12-10T03:08:28;-0.10;99.90
9151;DHT22;4610;50.006;7.490;2022-12-10T03:11:01;-0.10;99.90
9151;DHT22;4610;50.006;7.490;2022-12-10T03:13:37;-0.10;99.90
9151;DHT22;4610;50.006;7.490;2022-12-10T03:16:07;-0.10;99.90
9151;DHT22;4610;50.006;7.490;2022-12-10T03:18:36;0.00;99.90
9151;DHT22;4610;50.006;7.490;2022-12-10T03:21:05;-0.10;99.90
9151;DHT22;4610;50.006;7.490;2022-12-10T03:23:34;0.00;99.90
9151;DHT22;4610;50.006;7.490;2022-12-10T03:26:02;-0.10;99.90
9151;DHT22;4610;50.006;7.490;2022-12-10T03:28:30;-0.10;99.90
9151;DHT22;4610;50.006;7.490;2022-12-10T03:30:58;-0.20;99.90
9151;DHT22;4610;50.006;7.490;2022-12-10T03:33:26;-0.20;99.90
9151;DHT22;4610;50.006;7.490;2022-12-10T03:35:54;-0.30;99.90
9151;DHT22;4610;50.006;7.490;2022-12-10T03:38:22;-0.20;99.90
9151;DHT22;4610;50.006;7.490;2022-12-10T03:40:50;-0.50;99.90
9151;DHT22;4610;50.006;7.490;2022-12-10T03:43:17;-0.50;99.90
9151;DHT22;4610;50.006;7.490;2022-12-10T03:45:43;-0.60;99.90
9151;DHT22;4610;50.006;7.490;2022-12-10T03:48:11;-0.60;99.90
9151;DHT22;4610;50.006;7.490;2022-12-10T03:50:44;-0.70;99.90
9151;DHT22;4610;50.006;7.490;2022-12-10T03:53:10;-0.80;99.90
9151;DHT22;4610;50.006;7.490;2022-12-10T03:55:37;-0.90;99.90
9151;DHT22;4610;50.006;7.490;2022-12-10T03:58:05;-1.00;99.90
9151;DHT22;4610;50.006;7.490;2022-12-10T04:00:32;-1.00;99.90
9151;DHT22;4610;50.006;7.490;2022-12-10T04:02:59;-1.10;99.90
9151;DHT22;4610;50.006;7.490;2022-12-10T04:05:25;-1.30;99.90
9151;DHT22;4610;50.006;7.490;2022-12-10T04:07:54;-1.30;99.90
9151;DHT22;4610;50.006;7.490;2022-12-10T04:10:20;-1.30;99.90
9151;DHT22;4610;50.006;7.490;2022-12-10T04:12:48;-1.20;99.90
9151;DHT22;4610;50.006;7.490;2022-12-10T04:15:38;-1.10;99.90
9151;DHT22;4610;50.006;7.490;2022-12-10T04:18:23;-1.50;99.90
9151;DHT22;4610;50.006;7.490;2022-12-10T04:20:50;-1.10;99.90
9151;DHT22;4610;50.006;7.490;2022-12-10T04:23:37;-1.10;99.90
9151;DHT22;4610;50.006;7.490;2022-12-10T04:26:21;-1.10;99.90
9151;DHT22;4610;50.006;7.490;2022-12-10T04:29:12;-1.10;99.90
9151;DHT22;4610;50.006;7.490;2022-12-10T04:31:39;-1.10;99.90
9151;DHT22;4610;50.006;7.490;2022-12-10T04:34:06;-1.20;99.90
9151;DHT22;4610;50.006;7.490;2022-12-10T04:36:32;-1.30;99.90
9151;DHT22;4610;50.006;7.490;2022-12-10T04:39:01;-1.30;99.90
9151;DHT22;4610;50.006;7.490;2022-12-10T04:41:28;-1.40;99.90
9151;DHT22;4610;50.006;7.490;2022-12-10T04:43:55;-2.10;99.90
9151;DHT22;4610;50.006;7.490;2022-12-10T04:46:22;-1.40;99.90
9151;DHT22;4610;50.006;7.490;2022-12-10T04:48:48;-1.50;99.90
9151;DHT22;4610;50.006;7.490;2022-12-10T04:51:16;-1.50;99.90
9151;DHT22;4610;50.006;7.490;2022-12-10T04:53:43;-1.50;99.90
9151;DHT22;4610;50.006;7.490;2022-12-10T04:56:11;-1.50;99.90
9151;DHT22;4610;50.006;7.490;2022-12-10T04:58:38;-1.50;99.90
9151;DHT22;4610;50.006;7.490;2022-12-10T05:01:06;-1.50;99.90
9151;DHT22;4610;50.006;7.490;2022-12-10T05:03:34;-1.40;99.90
9151;DHT22;4610;50.006;7.490;2022-12-10T05:06:01;-1.30;99.90
9151;DHT22;4610;50.006;7.490;2022-12-10T05:08:30;-1.20;99.90
9151;DHT22;4610;50.006;7.490;2022-12-10T05:11:00;-1.10;99.90
9151;DHT22;4610;50.006;7.490;2022-12-10T05:13:29;-1.10;99.90
9151;DHT22;4610;50.006;7.490;2022-12-10T05:15:56;-1.00;99.90
9151;DHT22;4610;50.006;7.490;2022-12-10T05:18:23;-1.00;99.90
9151;DHT22;4610;50.006;7.490;2022-12-10T05:20:50;-1.00;99.90
9151;DHT22;4610;50.006;7.490;2022-12-10T05:23:17;-1.10;99.90
9151;DHT22;4610;50.006;7.490;2022-12-10T05:25:59;-1.10;99.90
9151;DHT22;4610;50.006;7.490;2022-12-10T05:28:27;-0.80;99.90
9151;DHT22;4610;50.006;7.490;2022-12-10T05:30:55;-1.20;99.90
9151;DHT22;4610;50.006;7.490;2022-12-10T05:33:22;-1.10;99.90
9151;DHT22;4610;50.006;7.490;2022-12-10T05:35:54;-1.10;99.90
9151;DHT22;4610;50.006;7.490;2022-12-10T05:38:21;-1.10;99.90
9151;DHT22;4610;50.006;7.490;2022-12-10T05:40:47;-1.10;99.90
9151;DHT22;4610;50.006;7.490;2022-12-10T05:43:14;-1.00;99.90
9151;DHT22;4610;50.006;7.490;2022-12-10T05:45:41;-1.00;99.90
9151;DHT22;4610;50.006;7.490;2022-12-10T05:48:10;-1.00;99.90
9151;DHT22;4610;50.006;7.490;2022-12-10T05:50:39;-1.00;99.90
9151;DHT22;4610;50.006;7.490;2022-12-10T05:53:05;-0.90;99.90
9151;DHT22;4610;50.006;7.490;2022-12-10T05:55:32;-0.90;99.90
9151;DHT22;4610;50.006;7.490;2022-12-10T05:58:00;-0.90;99.90
9151;DHT22;4610;50.006;7.490;2022-12-10T06:00:27;-0.90;99.90
9151;DHT22;4610;50.006;7.490;2022-12-10T06:02:54;-0.90;99.90
9151;DHT22;4610;50.006;7.490;2022-12-10T06:05:23;-0.90;99.90
9151;DHT22;4610;50.006;7.490;2022-12-10T06:07:49;-0.90;99.90
9151;DHT22;4610;50.006;7.490;2022-12-10T06:10:16;-0.90;99.90
9151;DHT22;4610;50.006;7.490;2022-12-10T06:12:43;-0.90;99.90
9151;DHT22;4610;50.006;7.490;2022-12-10T06:15:10;-0.80;99.90
9151;DHT22;4610;50.006;7.490;2022-12-10T06:17:37;-0.80;99.90
9151;DHT22;4610;50.006;7.490;2022-12-10T06:20:04;-0.80;99.90
9151;DHT22;4610;50.006;7.490;2022-12-10T06:22:33;-0.80;99.90
9151;DHT22;4610;50.006;7.490;2022-12-10T06:25:00;-0.70;99.90
9151;DHT22;4610;50.006;7.490;2022-12-10T06:27:29;-0.70;99.90
9151;DHT22;4610;50.006;7.490;2022-12-10T06:29:56;-0.60;99.90
9151;DHT22;4610;50.006;7.490;2022-12-10T06:32:23;-0.60;99.90
9151;DHT22;4610;50.006;7.490;2022-12-10T06:34:50;-0.50;99.90
9151;DHT22;4610;50.006;7.490;2022-12-10T06:37:17;-0.50;99.90
9151;DHT22;4610;50.006;7.490;2022-12-10T06:39:45;-0.50;99.90
9151;DHT22;4610;50.006;7.490;2022-12-10T06:42:12;-0.50;99.90
9151;DHT22;4610;50.006;7.490;2022-12-10T06:44:39;-0.40;99.90
9151;DHT22;4610;50.006;7.490;2022-12-10T06:47:06;-0.50;99.90
9151;DHT22;4610;50.006;7.490;2022-12-10T06:49:33;-0.50;99.90
9151;DHT22;4610;50.006;7.490;2022-12-10T06:51:59;-0.50;99.90
9151;DHT22;4610;50.006;7.490;2022-12-10T06:54:26;-0.50;99.90
9151;DHT22;4610;50.006;7.490;2022-12-10T06:56:55;-0.50;99.90
9151;DHT22;4610;50.006;7.490;2022-12-10T06:59:22;-0.50;99.90
9151;DHT22;4610;50.006;7.490;2022-12-10T07:01:48;-0.50;99.90
9151;DHT22;4610;50.006;7.490;2022-12-10T07:04:15;-0.60;99.90
9151;DHT22;4610;50.006;7.490;2022-12-10T07:06:42;-0.60;99.90
9151;DHT22;4610;50.006;7.490;2022-12-10T07:09:09;-0.60;99.90
9151;DHT22;4610;50.006;7.490;2022-12-10T07:11:37;-0.60;99.90
9151;DHT22;4610;50.006;7.490;2022-12-10T07:14:05;-0.60;99.90
9151;DHT22;4610;50.006;7.490;2022-12-10T07:16:33;-0.60;99.90
9151;DHT22;4610;50.006;7.490;2022-12-10T07:19:01;-0.80;99.90
9151;DHT22;4610;50.006;7.490;2022-12-10T07:21:30;-0.60;99.90
9151;DHT22;4610;50.006;7.490;2022-12-10T07:24:00;-0.70;99.90
9151;DHT22;4610;50.006;7.490;2022-12-10T07:26:28;-0.60;99.90
9151;DHT22;4610;50.006;7.490;2022-12-10T07:28:55;-0.70;99.90
9151;DHT22;4610;50.006;7.490;2022-12-10T07:31:24;-0.60;99.90
9151;DHT22;4610;50.006;7.490;2022-12-10T07:33:51;-0.70;99.90
9151;DHT22;4610;50.006;7.490;2022-12-10T07:36:19;-0.60;99.90
9151;DHT22;4610;50.006;7.490;2022-12-10T07:38:47;-0.20;99.90
9151;DHT22;4610;50.006;7.490;2022-12-10T07:41:15;-0.60;99.90
9151;DHT22;4610;50.006;7.490;2022-12-10T07:43:43;-0.60;99.90
9151;DHT22;4610;50.006;7.490;2022-12-10T07:46:13;-0.60;99.90
9151;DHT22;4610;50.006;7.490;2022-12-10T07:48:43;-0.70;99.90
9151;DHT22;4610;50.006;7.490;2022-12-10T07:51:10;-0.60;99.90
9151;DHT22;4610;50.006;7.490;2022-12-10T07:53:37;-0.60;99.90
9151;DHT22;4610;50.006;7.490;2022-12-10T07:56:04;-0.50;99.90
9151;DHT22;4610;50.006;7.490;2022-12-10T07:58:32;-0.50;99.90
9151;DHT22;4610;50.006;7.490;2022-12-10T08:01:04;-0.50;99.90
9151;DHT22;4610;50.006;7.490;2022-12-10T08:03:31;-0.50;99.90
9151;DHT22;4610;50.006;7.490;2022-12-10T08:06:03;-0.50;99.90
9151;DHT22;4610;50.006;7.490;2022-12-10T08:08:30;-0.50;99.90
9151;DHT22;4610;50.006;7.490;2022-12-10T08:10:59;-0.50;99.90
9151;DHT22;4610;50.006;7.490;2022-12-10T08:13:26;-0.50;99.90
9151;DHT22;4610;50.006;7.490;2022-12-10T08:15:53;-0.40;99.90
9151;DHT22;4610;50.006;7.490;2022-12-10T08:18:20;-0.40;99.90
9151;DHT22;4610;50.006;7.490;2022-12-10T08:20:46;-0.50;99.90
9151;DHT22;4610;50.006;7.490;2022-12-10T08:23:15;-0.40;99.90
9151;DHT22;4610;50.006;7.490;2022-12-10T08:25:41;-0.40;99.90
9151;DHT22;4610;50.006;7.490;2022-12-10T08:28:08;-0.40;99.90
9151;DHT22;4610;50.006;7.490;2022-12-10T08:30:35;-0.40;99.90
9151;DHT22;4610;50.006;7.490;2022-12-10T08:33:02;-0.40;99.90
9151;DHT22;4610;50.006;7.490;2022-12-10T08:35:29;-0.30;99.90
9151;DHT22;4610;50.006;7.490;2022-12-10T08:37:56;-0.30;99.90
9151;DHT22;4610;50.006;7.490;2022-12-10T08:40:24;-0.30;99.90
9151;DHT22;4610;50.006;7.490;2022-12-10T08:42:51;-0.30;99.90
9151;DHT22;4610;50.006;7.490;2022-12-10T08:45:18;-0.20;99.90
9151;DHT22;4610;50.006;7.490;2022-12-10T08:47:45;-0.30;99.90
9151;DHT22;4610;50.006;7.490;2022-12-10T08:50:12;-0.30;99.90
9151;DHT22;4610;50.006;7.490;2022-12-10T08:52:38;-0.30;99.90
9151;DHT22;4610;50.006;7.490;2022-12-10T08:55:06;-0.30;99.90
9151;DHT22;4610;50.006;7.490;2022-12-10T08:57:34;-0.20;99.90
9151;DHT22;4610;50.006;7.490;2022-12-10T09:00:02;-0.20;99.90
9151;DHT22;4610;50.006;7.490;2022-12-10T09:02:29;-0.20;99.90
9151;DHT22;4610;50.006;7.490;2022-12-10T09:04:56;-0.20;99.90
9151;DHT22;4610;50.006;7.490;2022-12-10T09:07:22;-0.20;99.90
9151;DHT22;4610;50.006;7.490;2022-12-10T09:09:49;-0.10;99.90
9151;DHT22;4610;50.006;7.490;2022-12-10T09:12:16;-0.20;99.90
9151;DHT22;4610;50.006;7.490;2022-12-10T09:14:44;-0.20;99.90
9151;DHT22;4610;50.006;7.490;2022-12-10T09:17:11;-0.20;99.90
9151;DHT22;4610;50.006;7.490;2022-12-10T09:19:38;-0.20;99.90
9151;DHT22;4610;50.006;7.490;2022-12-10T09:22:04;-0.20;99.90
9151;DHT22;4610;50.006;7.490;2022-12-10T09:24:31;-0.20;99.90
9151;DHT22;4610;50.006;7.490;2022-12-10T09:26:59;-0.20;99.90
9151;DHT22;4610;50.006;7.490;2022-12-10T09:29:26;-0.20;99.90
9151;DHT22;4610;50.006;7.490;2022-12-10T09:31:54;-0.20;99.90
9151;DHT22;4610;50.006;7.490;2022-12-10T09:34:21;-0.10;99.90
9151;DHT22;4610;50.006;7.490;2022-12-10T09:36:48;-0.10;99.90
9151;DHT22;4610;50.006;7.490;2022-12-10T09:39:14;-0.20;99.90
9151;DHT22;4610;50.006;7.490;2022-12-10T09:41:56;-0.20;99.90
9151;DHT22;4610;50.006;7.490;2022-12-10T09:44:35;-0.10;99.90
9151;DHT22;4610;50.006;7.490;2022-12-10T09:47:08;-0.10;99.90
9151;DHT22;4610;50.006;7.490;2022-12-10T09:49:44;-0.10;99.90
9151;DHT22;4610;50.006;7.490;2022-12-10T09:52:17;-0.20;99.90
9151;DHT22;4610;50.006;7.490;2022-12-10T09:54:49;1.40;99.90
9151;DHT22;4610;50.006;7.490;2022-12-10T09:57:20;1.00;99.90
9151;DHT22;4610;50.006;7.490;2022-12-10T09:59:49;0.60;99.90
9151;DHT22;4610;50.006;7.490;2022-12-10T10:02:22;0.40;99.90
9151;DHT22;4610;50.006;7.490;2022-12-10T10:04:50;0.30;99.90
9151;DHT22;4610;50.006;7.490;2022-12-10T10:07:21;0.30;99.90
9151;DHT22;4610;50.006;7.490;2022-12-10T10:09:48;0.30;99.90
9151;DHT22;4610;50.006;7.490;2022-12-10T10:12:17;0.20;99.90
9151;DHT22;4610;50.006;7.490;2022-12-10T10:14:44;0.20;99.90
9151;DHT22;4610;50.006;7.490;2022-12-10T10:17:14;0.20;99.90
9151;DHT22;4610;50.006;7.490;2022-12-10T10:19:44;0.20;99.90
9151;DHT22;4610;50.006;7.490;2022-12-10T10:22:11;0.30;99.90
9151;DHT22;4610;50.006;7.490;2022-12-10T10:24:40;0.20;99.90
9151;DHT22;4610;50.006;7.490;2022-12-10T10:27:13;0.20;99.90
9151;DHT22;4610;50.006;7.490;2022-12-10T10:29:42;0.10;99.90
9151;DHT22;4610;50.006;7.490;2022-12-10T10:32:13;0.10;99.90
9151;DHT22;4610;50.006;7.490;2022-12-10T10:34:41;0.10;99.90
9151;DHT22;4610;50.006;7.490;2022-12-10T10:37:15;0.20;99.90
9151;DHT22;4610;50.006;7.490;2022-12-10T10:39:47;0.40;99.90
9151;DHT22;4610;50.006;7.490;2022-12-10T10:42:23;0.50;99.90
9151;DHT22;4610;50.006;7.490;2022-12-10T10:44:52;0.50;99.90
9151;DHT22;4610;50.006;7.490;2022-12-10T10:47:26;0.60;99.90
9151;DHT22;4610;50.006;7.490;2022-12-10T10:49:53;0.60;99.90
9151;DHT22;4610;50.006;7.490;2022-12-10T10:52:22;0.70;99.90
9151;DHT22;4610;50.006;7.490;2022-12-10T10:54:49;0.60;99.90
9151;DHT22;4610;50.006;7.490;2022-12-10T10:57:21;0.60;99.90
9151;DHT22;4610;50.006;7.490;2022-12-10T10:59:51;0.50;99.90
9151;DHT22;4610;50.006;7.490;2022-12-10T11:02:22;0.40;99.90
9151;DHT22;4610;50.006;7.490;2022-12-10T11:04:52;0.40;99.90
9151;DHT22;4610;50.006;7.490;2022-12-10T11:07:32;0.40;99.90
9151;DHT22;4610;50.006;7.490;2022-12-10T11:10:00;0.30;99.90
9151;DHT22;4610;50.006;7.490;2022-12-10T11:12:35;0.30;99.90
9151;DHT22;4610;50.006;7.490;2022-12-10T11:15:21;1.40;99.90
9151;DHT22;4610;50.006;7.490;2022-12-10T11:17:55;0.40;99.90
9151;DHT22;4610;50.006;7.490;2022-12-10T11:20:24;0.40;99.90
9151;DHT22;4610;50.006;7.490;2022-12-10T11:22:55;0.50;99.90
9151;DHT22;4610;50.006;7.490;2022-12-10T11:25:33;0.60;99.90
9151;DHT22;4610;50.006;7.490;2022-12-10T11:28:10;0.60;99.90
9151;DHT22;4610;50.006;7.490;2022-12-10T11:30:48;0.50;99.90
9151;DHT22;4610;50.006;7.490;2022-12-10T11:33:26;0.50;99.90
9151;DHT22;4610;50.006;7.490;2022-12-10T11:36:00;0.50;99.90
9151;DHT22;4610;50.006;7.490;2022-12-10T11:38:31;0.50;99.90
9151;DHT22;4610;50.006;7.490;2022-12-10T11:41:04;0.50;99.90
9151;DHT22;4610;50.006;7.490;2022-12-10T11:43:44;0.50;99.90
9151;DHT22;4610;50.006;7.490;2022-12-10T11:46:31;0.50;99.90
9151;DHT22;4610;50.006;7.490;2022-12-10T11:49:09;0.40;99.90
9151;DHT22;4610;50.006;7.490;2022-12-10T11:51:45;0.50;99.90
9151;DHT22;4610;50.006;7.490;2022-12-10T11:54:34;0.60;99.90
9151;DHT22;4610;50.006;7.490;2022-12-10T11:57:11;0.60;99.90
9151;DHT22;4610;50.006;7.490;2022-12-10T11:59:45;0.70;99.90
9151;DHT22;4610;50.006;7.490;2022-12-10T12:02:29;0.70;99.90
9151;DHT22;4610;50.006;7.490;2022-12-10T12:05:13;0.60;99.90
9151;DHT22;4610;50.006;7.490;2022-12-10T12:07:52;0.50;99.90
9151;DHT22;4610;50.006;7.490;2022-12-10T12:13:29;0.60;99.90
9151;DHT22;4610;50.006;7.490;2022-12-10T12:16:03;0.60;99.90
9151;DHT22;4610;50.006;7.490;2022-12-10T12:18:39;0.50;99.90
9151;DHT22;4610;50.006;7.490;2022-12-10T12:21:10;0.50;99.90
9151;DHT22;4610;50.006;7.490;2022-12-10T12:23:43;0.60;99.90
9151;DHT22;4610;50.006;7.490;2022-12-10T12:26:16;0.70;99.90
9151;DHT22;4610;50.006;7.490;2022-12-10T12:28:48;0.70;99.90
9151;DHT22;4610;50.006;7.490;2022-12-10T12:31:20;0.80;99.90
9151;DHT22;4610;50.006;7.490;2022-12-10T12:33:50;0.80;99.90
9151;DHT22;4610;50.006;7.490;2022-12-10T12:36:20;0.90;99.90
9151;DHT22;4610;50.006;7.490;2022-12-10T12:38:54;0.70;99.90
9151;DHT22;4610;50.006;7.490;2022-12-10T12:41:31;0.70;99.90
9151;DHT22;4610;50.006;7.490;2022-12-10T12:44:04;0.70;99.90
9151;DHT22;4610;50.006;7.490;2022-12-10T12:46:38;0.70;99.90
9151;DHT22;4610;50.006;7.490;2022-12-10T12:49:13;0.70;99.90
9151;DHT22;4610;50.006;7.490;2022-12-10T12:51:45;0.70;99.90
9151;DHT22;4610;50.006;7.490;2022-12-10T12:54:12;0.80;99.90
9151;DHT22;4610;50.006;7.490;2022-12-10T12:56:55;0.90;99.90
9151;DHT22;4610;50.006;7.490;2022-12-10T12:59:34;1.00;99.90
9151;DHT22;4610;50.006;7.490;2022-12-10T13:02:15;0.80;99.90
9151;DHT22;4610;50.006;7.490;2022-12-10T13:04:45;0.70;99.90
9151;DHT22;4610;50.006;7.490;2022-12-10T13:07:33;0.70;99.90
9151;DHT22;4610;50.006;7.490;2022-12-10T13:10:24;0.60;99.90
9151;DHT22;4610;50.006;7.490;2022-12-10T13:13:21;0.60;99.90
9151;DHT22;4610;50.006;7.490;2022-12-10T13:15:49;0.60;99.90
9151;DHT22;4610;50.006;7.490;2022-12-10T13:18:22;0.50;99.90
9151;DHT22;4610;50.006;7.490;2022-12-10T13:20:50;0.50;99.90
9151;DHT22;4610;50.006;7.490;2022-12-10T13:23:46;0.60;99.90
9151;DHT22;4610;50.006;7.490;2022-12-10T13:26:23;0.60;99.90
9151;DHT22;4610;50.006;7.490;2022-12-10T13:28:53;0.50;99.90
9151;DHT22;4610;50.006;7.490;2022-12-10T13:31:33;0.50;99.90
9151;DHT22;4610;50.006;7.490;2022-12-10T13:34:19;0.50;99.90
9151;DHT22;4610;50.006;7.490;2022-12-10T13:37:03;0.40;99.90
9151;DHT22;4610;50.006;7.490;2022-12-10T13:39:33;0.30;99.90
9151;DHT22;4610;50.006;7.490;2022-12-10T13:42:33;0.30;99.90
9151;DHT22;4610;50.006;7.490;2022-12-10T13:45:28;0.30;99.90
9151;DHT22;4610;50.006;7.490;2022-12-10T13:48:17;0.30;99.90
9151;DHT22;4610;50.006;7.490;2022-12-10T13:50:47;0.40;99.90
9151;DHT22;4610;50.006;7.490;2022-12-10T13:53:21;0.30;99.90
9151;DHT22;4610;50.006;7.490;2022-12-10T13:55:59;0.30;99.90
9151;DHT22;4610;50.006;7.490;2022-12-10T13:58:41;0.30;99.90
9151;DHT22;4610;50.006;7.490;2022-12-10T14:01:16;0.30;99.90
9151;DHT22;4610;50.006;7.490;2022-12-10T14:04:05;0.40;99.90
9151;DHT22;4610;50.006;7.490;2022-12-10T14:06:38;0.40;99.90
9151;DHT22;4610;50.006;7.490;2022-12-10T14:09:11;1.10;99.90
9151;DHT22;4610;50.006;7.490;2022-12-10T14:11:43;0.50;99.90
9151;DHT22;4610;50.006;7.490;2022-12-10T14:14:14;0.50;99.90
9151;DHT22;4610;50.006;7.490;2022-12-10T14:16:45;0.50;99.90
9151;DHT22;4610;50.006;7.490;2022-12-10T14:19:14;0.40;99.90
9151;DHT22;4610;50.006;7.490;2022-12-10T14:21:44;0.40;99.90
9151;DHT22;4610;50.006;7.490;2022-12-10T14:24:29;0.40;99.90
9151;DHT22;4610;50.006;7.490;2022-12-10T14:26:58;2.40;99.90
9151;DHT22;4610;50.006;7.490;2022-12-10T14:29:25;1.60;99.90
9151;DHT22;4610;50.006;7.490;2022-12-10T14:31:53;1.30;99.90
9151;DHT22;4610;50.006;7.490;2022-12-10T14:34:24;1.00;99.90
9151;DHT22;4610;50.006;7.490;2022-12-10T14:36:52;0.80;99.90
9151;DHT22;4610;50.006;7.490;2022-12-10T14:39:25;0.30;99.90
9151;DHT22;4610;50.006;7.490;2022-12-10T14:41:54;0.50;99.90
9151;DHT22;4610;50.006;7.490;2022-12-10T14:44:22;0.40;99.90
9151;DHT22;4610;50.006;7.490;2022-12-10T14:46:50;0.30;99.90
9151;DHT22;4610;50.006;7.490;2022-12-10T14:49:23;0.30;99.90
9151;DHT22;4610;50.006;7.490;2022-12-10T14:51:51;0.20;99.90
9151;DHT22;4610;50.006;7.490;2022-12-10T14:54:26;0.20;99.90
9151;DHT22;4610;50.006;7.490;2022-12-10T14:56:54;0.30;99.90
9151;DHT22;4610;50.006;7.490;2022-12-10T14:59:24;0.20;99.90
9151;DHT22;4610;50.006;7.490;2022-12-10T15:01:57;0.30;99.90
9151;DHT22;4610;50.006;7.490;2022-12-10T15:04:38;0.30;99.90
9151;DHT22;4610;50.006;7.490;2022-12-10T15:07:13;0.30;99.90
9151;DHT22;4610;50.006;7.490;2022-12-10T15:09:42;0.20;99.90
9151;DHT22;4610;50.006;7.490;2022-12-10T15:12:20;0.10;99.90
9151;DHT22;4610;50.006;7.490;2022-12-10T15:14:48;0.00;99.90
9151;DHT22;4610;50.006;7.490;2022-12-10T15:17:32;0.00;99.90
9151;DHT22;4610;50.006;7.490;2022-12-10T15:20:01;0.00;99.90
9151;DHT22;4610;50.006;7.490;2022-12-10T15:22:29;0.00;99.90
9151;DHT22;4610;50.006;7.490;2022-12-10T15:24:56;0.00;99.90
9151;DHT22;4610;50.006;7.490;2022-12-10T15:27:24;0.00;99.90
9151;DHT22;4610;50.006;7.490;2022-12-10T15:29:52;-0.10;99.90
9151;DHT22;4610;50.006;7.490;2022-12-10T15:32:20;-0.20;99.90
9151;DHT22;4610;50.006;7.490;2022-12-10T15:34:49;-0.20;99.90
9151;DHT22;4610;50.006;7.490;2022-12-10T15:37:23;0.70;99.90
9151;DHT22;4610;50.006;7.490;2022-12-10T15:39:52;-0.50;99.90
9151;DHT22;4610;50.006;7.490;2022-12-10T15:42:30;-0.60;99.90
9151;DHT22;4610;50.006;7.490;2022-12-10T15:45:01;-0.70;99.90
9151;DHT22;4610;50.006;7.490;2022-12-10T15:47:30;-0.80;99.90
9151;DHT22;4610;50.006;7.490;2022-12-10T15:49:58;-0.80;99.90
9151;DHT22;4610;50.006;7.490;2022-12-10T15:52:28;-0.90;99.90
9151;DHT22;4610;50.006;7.490;2022-12-10T15:54:57;-0.90;99.90
9151;DHT22;4610;50.006;7.490;2022-12-10T15:57:25;-0.90;99.90
9151;DHT22;4610;50.006;7.490;2022-12-10T15:59:54;-0.90;99.90
9151;DHT22;4610;50.006;7.490;2022-12-10T16:02:28;-1.00;99.90
9151;DHT22;4610;50.006;7.490;2022-12-10T16:04:57;-1.00;99.90
9151;DHT22;4610;50.006;7.490;2022-12-10T16:07:26;-1.00;99.90
9151;DHT22;4610;50.006;7.490;2022-12-10T16:09:53;-1.10;99.90
9151;DHT22;4610;50.006;7.490;2022-12-10T16:12:20;-1.10;99.90
9151;DHT22;4610;50.006;7.490;2022-12-10T16:14:50;-1.10;99.90
9151;DHT22;4610;50.006;7.490;2022-12-10T16:17:18;-1.10;99.90
9151;DHT22;4610;50.006;7.490;2022-12-10T16:19:45;-1.30;99.90
9151;DHT22;4610;50.006;7.490;2022-12-10T16:22:12;-1.30;99.90
9151;DHT22;4610;50.006;7.490;2022-12-10T16:24:40;-1.50;99.90
9151;DHT22;4610;50.006;7.490;2022-12-10T16:27:12;-3.10;99.90
9151;DHT22;4610;50.006;7.490;2022-12-10T16:29:39;-1.60;99.90
9151;DHT22;4610;50.006;7.490;2022-12-10T16:32:08;-1.60;99.90
9151;DHT22;4610;50.006;7.490;2022-12-10T16:34:35;-0.10;99.90
9151;DHT22;4610;50.006;7.490;2022-12-10T16:37:02;-1.60;99.90